Time;durP1;ratioP1;P1;durP2;ratioP2;P2;SDS_P1;SDS_P2;PMS_P1;PMS_P2;Temp;Humidity;BMP_temperature;BMP_pressure;BME280_temperature;BME280_humidity;BME280_pressure;Samples;Min_cycle;Max_cycle;Signal;HPM_P1;HPM_P2
2022/10/21 00:01:05;;;;;;;23.10;18.00;;;;;;;13.39;100.00;100676.22;5031898;28;20106;-92
2022/10/21 00:03:31;;;;;;;22.73;17.80;;;;;;;13.38;100.00;100674.59;5030895;28;20530;-92
2022/10/21 00:05:56;;;;;;;22.87;18.30;;;;;;;13.41;100.00;100675.97;5033772;28;20099;-92
2022/10/21 00:08:22;;;;;;;25.83;18.10;;;;;;;13.32;100.00;100676.28;5033098;28;20096;-90
2022/10/21 00:10:55;;;;;;;22.33;17.63;;;;;;;13.41;100.00;100678.72;5032801;28;20198;-93
2022/10/21 00:13:21;;;;;;;24.50;18.33;;;;;;;13.43;100.00;100669.25;5033077;28;20037;-90
2022/10/21 00:16:12;;;;;;;21.43;17.33;;;;;;;13.38;100.00;100660.97;5025088;28;20033;-93
2022/10/21 00:18:39;;;;;;;21.83;17.60;;;;;;;13.38;100.00;100657.41;5029832;28;20111;-94
2022/10/21 00:21:31;;;;;;;25.87;17.57;;;;;;;13.38;100.00;100658.25;5008370;28;20072;-93
2022/10/21 00:23:56;;;;;;;25.63;17.80;;;;;;;13.42;100.00;100661.31;5027692;28;20049;-91
2022/10/21 00:26:21;;;;;;;23.27;17.47;;;;;;;13.44;100.00;100656.50;5033012;28;20588;-91
2022/10/21 00:28:47;;;;;;;22.87;17.73;;;;;;;13.41;100.00;100652.34;5007609;28;20172;-92
2022/10/21 00:31:14;;;;;;;23.93;17.17;;;;;;;13.46;100.00;100660.63;5033008;28;20124;-92
2022/10/21 00:33:40;;;;;;;22.87;17.70;;;;;;;13.43;100.00;100644.75;5031992;28;20037;-92
2022/10/21 00:36:06;;;;;;;24.33;17.63;;;;;;;13.43;100.00;100647.47;5033012;28;20499;-92
2022/10/21 00:38:33;;;;;;;21.20;17.13;;;;;;;13.45;100.00;100639.06;5022815;28;20071;-92
2022/10/21 00:40:59;;;;;;;23.63;17.40;;;;;;;13.43;100.00;100646.66;5023018;28;20493;-93
2022/10/21 00:43:26;;;;;;;21.63;17.00;;;;;;;13.42;100.00;100648.56;5031304;28;20055;-92
2022/10/21 00:45:54;;;;;;;21.50;17.00;;;;;;;13.39;100.00;100657.16;5032472;28;20052;-93
2022/10/21 00:48:33;;;;;;;25.40;17.60;;;;;;;13.41;100.00;100665.09;5032558;28;20037;-93
2022/10/21 00:51:13;;;;;;;23.30;17.17;;;;;;;13.37;100.00;100663.91;5032535;28;20148;-91
2022/10/21 00:53:43;;;;;;;25.43;17.37;;;;;;;13.30;100.00;100656.66;5031965;28;20046;-91
2022/10/21 00:56:13;;;;;;;21.53;17.43;;;;;;;13.33;100.00;100663.53;5006958;28;20063;-93
2022/10/21 00:58:39;;;;;;;25.23;17.00;;;;;;;13.29;100.00;100649.56;5031893;28;20075;-92
2022/10/21 01:01:06;;;;;;;21.37;17.40;;;;;;;13.27;100.00;100646.28;5031902;28;20112;-93
2022/10/21 01:03:33;;;;;;;23.43;17.30;;;;;;;13.27;100.00;100645.41;5031732;28;20072;-93
2022/10/21 01:06:02;;;;;;;25.47;17.20;;;;;;;13.28;100.00;100647.09;5032581;28;20071;-92
2022/10/21 01:08:27;;;;;;;24.27;17.23;;;;;;;13.15;100.00;100618.19;5024197;28;20031;-93
2022/10/21 01:10:53;;;;;;;22.67;17.90;;;;;;;13.29;100.00;100638.69;5031866;28;20381;-91
2022/10/21 01:13:39;;;;;;;24.80;17.77;;;;;;;13.27;100.00;100623.66;5031412;28;20065;-92
2022/10/21 01:16:39;;;;;;;23.10;17.47;;;;;;;13.30;100.00;100623.19;5031151;28;20110;-93
2022/10/21 01:19:38;;;;;;;23.03;17.60;;;;;;;13.33;100.00;100625.44;5030442;28;20119;-93
2022/10/21 01:22:40;;;;;;;22.27;17.70;;;;;;;13.31;100.00;100619.41;5030900;28;20037;-92
2022/10/21 01:25:24;;;;;;;23.03;17.53;;;;;;;13.31;100.00;100611.22;5030788;28;20033;-94
2022/10/21 01:28:37;;;;;;;24.88;17.75;;;;;;;13.29;100.00;100622.34;5031320;28;20474;-93
2022/10/21 01:31:45;;;;;;;22.77;17.23;;;;;;;13.22;100.00;100609.91;5030348;28;20550;-92
2022/10/21 01:34:19;;;;;;;20.93;17.00;;;;;;;13.16;100.00;100596.22;4968054;28;20050;-92
2022/10/21 01:36:55;;;;;;;21.65;17.33;;;;;;;13.15;100.00;100593.72;4967539;28;20505;-92
2022/10/21 01:39:23;;;;;;;25.53;17.57;;;;;;;13.11;100.00;100593.38;5004615;28;20044;-93
2022/10/21 01:42:02;;;;;;;25.67;17.63;;;;;;;13.08;100.00;100596.56;5031513;28;20092;-92
2022/10/21 01:44:39;;;;;;;21.40;17.63;;;;;;;13.03;100.00;100592.88;5030426;28;20064;-93
2022/10/21 01:47:20;;;;;;;22.80;18.50;;;;;;;13.03;100.00;100580.13;5030930;28;20040;-92
2022/10/21 01:49:57;;;;;;;23.77;18.20;;;;;;;12.99;100.00;100577.03;5021974;28;20165;-93
2022/10/21 01:52:22;;;;;;;23.17;17.57;;;;;;;12.95;100.00;100575.84;5030894;28;20041;-93
2022/10/21 01:54:57;;;;;;;23.80;17.87;;;;;;;12.92;100.00;100568.16;5006003;28;20048;-92
2022/10/21 01:57:27;;;;;;;24.40;17.75;;;;;;;12.92;100.00;100564.59;5030954;28;20034;-92
2022/10/21 01:59:56;;;;;;;23.70;17.70;;;;;;;12.88;100.00;100566.97;5029246;28;20030;-91
2022/10/21 02:02:27;;;;;;;23.97;17.67;;;;;;;12.81;100.00;100555.34;4989961;28;20037;-91
2022/10/21 02:04:54;;;;;;;24.40;17.93;;;;;;;12.74;100.00;100550.06;5030563;28;20151;-91
2022/10/21 02:07:20;;;;;;;22.57;17.87;;;;;;;12.77;100.00;100544.13;5031000;28;20493;-91
2022/10/21 02:09:45;;;;;;;23.93;18.37;;;;;;;12.78;100.00;100545.81;5006471;28;20036;-92
2022/10/21 02:12:11;;;;;;;24.60;17.20;;;;;;;12.77;100.00;100554.16;5031753;28;20037;-92
2022/10/21 02:14:50;;;;;;;22.80;18.23;;;;;;;12.71;100.00;100550.50;5021725;28;20049;-92
2022/10/21 02:17:18;;;;;;;22.43;17.30;;;;;;;12.65;100.00;100543.28;5030362;28;20033;-91
2022/10/21 02:19:45;;;;;;;23.67;17.63;;;;;;;12.65;100.00;100546.81;5029961;28;20520;-92
2022/10/21 02:22:14;;;;;;;22.97;18.27;;;;;;;12.68;100.00;100545.53;5005839;28;20033;-90
2022/10/21 02:25:03;;;;;;;22.03;17.43;;;;;;;12.66;100.00;100540.34;5030532;28;20037;-91
2022/10/21 02:27:29;;;;;;;22.53;18.43;;;;;;;12.64;100.00;100541.63;5030810;28;20041;-91
2022/10/21 02:29:57;;;;;;;22.20;18.10;;;;;;;12.61;100.00;100529.31;5021797;28;20045;-93
2022/10/21 02:32:34;;;;;;;22.17;18.53;;;;;;;12.59;100.00;100531.47;5030628;28;20134;-92
2022/10/21 02:35:08;;;;;;;25.60;17.73;;;;;;;12.57;100.00;100538.19;5029872;28;20060;-92
2022/10/21 02:37:53;;;;;;;22.52;17.67;;;;;;;12.53;100.00;100537.81;5030469;28;20053;-93
2022/10/21 02:40:28;;;;;;;23.55;17.50;;;;;;;12.47;100.00;100545.00;5030044;28;20057;-93
2022/10/21 02:43:03;;;;;;;22.50;17.87;;;;;;;12.45;100.00;100532.72;5029815;28;20397;-93
2022/10/21 02:45:28;;;;;;;22.38;17.55;;;;;;;12.41;100.00;100545.91;5029883;28;20040;-93
2022/10/21 02:47:54;;;;;;;21.80;17.17;;;;;;;12.44;100.00;100539.19;5030932;28;20037;-92
2022/10/21 02:50:19;;;;;;;23.00;18.13;;;;;;;12.43;100.00;100543.81;5029972;28;20032;-91
2022/10/21 02:52:45;;;;;;;23.07;18.37;;;;;;;12.43;100.00;100553.84;5012690;28;20608;-92
2022/10/21 02:55:11;;;;;;;22.30;17.80;;;;;;;12.39;100.00;100541.78;5029427;28;20445;-92
2022/10/21 02:57:36;;;;;;;25.63;18.40;;;;;;;12.41;100.00;100540.50;4978503;28;21401;-92
2022/10/21 03:00:04;;;;;;;23.97;18.10;;;;;;;12.39;100.00;100537.19;4988434;28;20071;-92
2022/10/21 03:02:29;;;;;;;23.87;18.23;;;;;;;12.27;100.00;100515.41;5030921;28;20438;-91
2022/10/21 03:04:54;;;;;;;23.87;18.60;;;;;;;12.37;100.00;100531.16;5028334;28;20120;-91
2022/10/21 03:07:20;;;;;;;24.03;18.10;;;;;;;12.33;100.00;100524.53;5028053;28;20110;-92
2022/10/21 03:09:45;;;;;;;23.20;17.53;;;;;;;12.33;100.00;100513.66;5029855;28;20037;-91
2022/10/21 03:12:10;;;;;;;24.40;17.93;;;;;;;12.28;100.00;100517.06;5021755;28;20052;-91
2022/10/21 03:14:36;;;;;;;22.40;17.23;;;;;;;12.33;100.00;100521.81;5029842;28;20032;-92
2022/10/21 03:17:01;;;;;;;23.00;17.63;;;;;;;12.32;100.00;100533.72;5029588;28;20053;-92
2022/10/21 03:19:26;;;;;;;25.00;18.20;;;;;;;12.27;100.00;100529.00;5029660;28;20066;-92
2022/10/21 03:21:52;;;;;;;23.23;17.63;;;;;;;12.24;100.00;100518.59;5029582;28;20127;-93
2022/10/21 03:24:17;;;;;;;23.60;16.97;;;;;;;12.28;100.00;100521.66;5029567;28;20095;-93
2022/10/21 03:26:42;;;;;;;21.70;17.30;;;;;;;12.20;100.00;100508.41;5029841;28;20045;-92
2022/10/21 03:29:14;;;;;;;23.07;16.77;;;;;;;12.25;100.00;100520.25;5029646;28;20366;-92
2022/10/21 03:31:39;;;;;;;21.87;17.40;;;;;;;12.19;100.00;100515.75;5029466;28;20056;-92
2022/10/21 03:34:04;;;;;;;20.90;16.20;;;;;;;12.24;100.00;100524.03;5030063;28;20458;-90
2022/10/21 03:36:30;;;;;;;23.87;16.40;;;;;;;12.25;100.00;100522.97;5029941;28;20400;-92
2022/10/21 03:38:55;;;;;;;21.97;16.50;;;;;;;12.15;100.00;100518.06;5029844;28;20050;-93
2022/10/21 03:41:20;;;;;;;23.77;16.27;;;;;;;12.14;100.00;100519.16;5003631;28;20444;-93
2022/10/21 03:43:46;;;;;;;23.70;17.67;;;;;;;12.20;100.00;100527.41;5003850;28;20579;-93
2022/10/21 03:46:11;;;;;;;26.27;16.60;;;;;;;12.13;100.00;100524.78;5029600;28;20519;-92
2022/10/21 03:48:36;;;;;;;22.13;16.57;;;;;;;12.14;100.00;100518.31;5005377;28;20042;-93
2022/10/21 03:51:02;;;;;;;22.93;16.07;;;;;;;12.18;100.00;100522.22;5029284;28;20470;-91
2022/10/21 03:53:27;;;;;;;21.33;15.40;;;;;;;12.09;100.00;100513.59;5003618;28;20470;-91
2022/10/21 03:55:53;;;;;;;20.23;14.97;;;;;;;12.15;100.00;100512.66;5029304;28;20041;-91
2022/10/21 03:58:18;;;;;;;21.37;15.30;;;;;;;12.14;100.00;100505.59;5029908;28;20091;-92
2022/10/21 04:00:44;;;;;;;20.60;14.57;;;;;;;12.20;100.00;100522.00;5029208;28;20123;-91
2022/10/21 04:03:09;;;;;;;20.17;14.60;;;;;;;12.25;100.00;100522.97;5029947;28;20508;-94
2022/10/21 04:05:35;;;;;;;18.20;13.40;;;;;;;12.24;100.00;100502.31;5029287;28;20828;-92
2022/10/21 04:08:01;;;;;;;20.23;13.83;;;;;;;12.26;100.00;100504.78;5028642;28;20868;-91
2022/10/21 04:10:26;;;;;;;19.63;13.70;;;;;;;12.25;100.00;100508.56;5029537;28;20045;-91
2022/10/21 04:12:52;;;;;;;20.20;13.20;;;;;;;12.28;100.00;100517.06;5027673;28;20166;-91
2022/10/21 04:15:17;;;;;;;18.03;13.00;;;;;;;12.25;100.00;100512.13;5004366;28;20050;-91
2022/10/21 04:17:45;;;;;;;19.37;12.70;;;;;;;12.29;100.00;100518.75;5031157;28;20045;-91
2022/10/21 04:20:11;;;;;;;20.93;12.53;;;;;;;12.29;100.00;100515.19;5032367;28;20044;-92
2022/10/21 04:22:37;;;;;;;17.40;12.60;;;;;;;12.22;100.00;100509.84;5030350;28;20033;-92
2022/10/21 04:25:02;;;;;;;19.93;12.23;;;;;;;12.29;100.00;100526.88;5032621;28;20102;-92
2022/10/21 04:27:28;;;;;;;16.87;12.03;;;;;;;12.24;100.00;100509.59;5033072;28;20488;-93
2022/10/21 04:29:53;;;;;;;19.80;13.20;;;;;;;12.28;100.00;100519.78;5032005;28;20599;-93
2022/10/21 04:32:19;;;;;;;15.90;11.63;;;;;;;12.15;100.00;100496.34;5006666;28;20040;-92
2022/10/21 04:34:44;;;;;;;18.70;12.30;;;;;;;12.23;100.00;100503.34;5031919;28;20036;-92
2022/10/21 04:37:10;;;;;;;18.60;11.97;;;;;;;12.26;100.00;100511.03;5032841;28;20045;-92
2022/10/21 04:39:35;;;;;;;20.43;12.50;;;;;;;12.23;100.00;100510.69;5023245;28;20047;-92
2022/10/21 04:42:00;;;;;;;16.17;11.40;;;;;;;12.19;100.00;100509.50;5032349;28;20037;-92
2022/10/21 04:44:26;;;;;;;18.07;11.67;;;;;;;12.23;100.00;100524.25;5032368;28;20036;-90
2022/10/21 04:46:51;;;;;;;16.37;11.67;;;;;;;12.18;100.00;100508.66;5032031;28;20497;-93
2022/10/21 04:49:17;;;;;;;15.67;11.67;;;;;;;12.13;100.00;100514.78;5032203;28;20401;-93
2022/10/21 04:51:42;;;;;;;18.03;11.77;;;;;;;12.11;100.00;100516.88;5031825;28;20041;-93
2022/10/21 04:54:07;;;;;;;18.07;11.60;;;;;;;12.15;100.00;100519.97;5031984;28;20059;-93
2022/10/21 04:56:33;;;;;;;17.10;11.40;;;;;;;12.13;100.00;100513.94;5032341;28;20041;-92
2022/10/21 04:58:58;;;;;;;16.33;11.30;;;;;;;12.13;100.00;100522.09;4991162;28;20040;-91
2022/10/21 05:01:23;;;;;;;18.27;11.57;;;;;;;12.10;100.00;100519.84;5032303;28;20036;-92
2022/10/21 05:03:49;;;;;;;18.10;11.47;;;;;;;12.10;100.00;100514.41;5031828;28;20119;-91
2022/10/21 05:06:14;;;;;;;17.97;12.00;;;;;;;12.07;100.00;100506.72;5005984;28;20112;-92
2022/10/21 05:08:39;;;;;;;16.60;11.33;;;;;;;12.09;100.00;100510.88;5007306;28;20572;-92
2022/10/21 05:11:05;;;;;;;15.87;11.03;;;;;;;11.99;100.00;100500.56;5031821;28;20088;-92
2022/10/21 05:13:32;;;;;;;15.10;10.80;;;;;;;12.04;100.00;100510.72;5032417;28;20037;-92
2022/10/21 05:15:59;;;;;;;16.97;11.20;;;;;;;12.05;100.00;100512.38;5023634;28;20546;-91
2022/10/21 05:18:25;;;;;;;16.67;10.53;;;;;;;12.03;100.00;100508.25;5006374;28;20048;-92
2022/10/21 05:20:52;;;;;;;16.97;11.20;;;;;;;12.04;100.00;100521.59;5032182;28;20049;-94
2022/10/21 05:23:18;;;;;;;16.23;10.67;;;;;;;12.04;100.00;100512.63;5031895;28;20076;-93
2022/10/21 05:25:44;;;;;;;16.50;10.50;;;;;;;12.03;100.00;100513.66;5031544;28;20034;-94
2022/10/21 05:28:10;;;;;;;15.60;10.87;;;;;;;11.95;100.00;100501.22;5032236;28;20111;-95
2022/10/21 05:30:35;;;;;;;16.40;10.30;;;;;;;11.93;100.00;100490.56;5029529;28;20465;-93
2022/10/21 05:33:00;;;;;;;16.97;10.20;;;;;;;12.00;100.00;100501.38;5030882;28;20060;-95
2022/10/21 05:35:26;;;;;;;14.13;10.10;;;;;;;11.98;100.00;100495.34;5030579;28;20040;-91
2022/10/21 05:37:51;;;;;;;12.63;10.00;;;;;;;11.99;100.00;100499.72;5031562;28;20041;-91
2022/10/21 05:40:17;;;;;;;17.70;10.77;;;;;;;11.94;100.00;100484.13;5029799;28;20064;-91
2022/10/21 05:42:43;;;;;;;14.53;10.43;;;;;;;11.83;100.00;100476.72;4991339;28;20041;-91
2022/10/21 05:45:09;;;;;;;17.37;11.07;;;;;;;11.89;100.00;100483.94;5031845;28;20055;-91
2022/10/21 05:47:34;;;;;;;16.50;10.33;;;;;;;11.94;100.00;100488.69;5031480;28;20040;-91
2022/10/21 05:50:00;;;;;;;13.17;9.97;;;;;;;11.92;100.00;100477.22;5030926;28;20128;-92
2022/10/21 05:52:25;;;;;;;15.73;10.03;;;;;;;11.88;100.00;100479.56;5011759;28;20489;-93
2022/10/21 05:54:51;;;;;;;15.47;10.27;;;;;;;11.89;100.00;100478.53;5021752;28;20348;-92
2022/10/21 05:57:16;;;;;;;15.90;10.07;;;;;;;11.86;100.00;100473.56;5031352;28;20975;-92
2022/10/21 05:59:42;;;;;;;17.73;10.60;;;;;;;11.85;100.00;100474.59;5031821;28;20485;-92
2022/10/21 06:02:09;;;;;;;16.37;10.27;;;;;;;11.76;100.00;100465.13;5031147;28;20041;-93
2022/10/21 06:04:34;;;;;;;17.17;10.87;;;;;;;11.63;100.00;100447.97;5013536;28;20079;-94
2022/10/21 06:07:00;;;;;;;16.20;10.83;;;;;;;11.70;100.00;100460.63;5030422;28;20141;-91
2022/10/21 06:09:25;;;;;;;14.13;10.43;;;;;;;11.72;100.00;100458.50;5005505;28;20037;-93
2022/10/21 06:11:50;;;;;;;17.37;10.50;;;;;;;11.74;100.00;100459.94;5012628;28;20044;-93
2022/10/21 06:14:16;;;;;;;16.57;10.00;;;;;;;11.77;100.00;100458.63;5028969;28;20045;-91
2022/10/21 06:16:41;;;;;;;16.23;10.90;;;;;;;11.68;100.00;100446.44;5031311;28;20043;-92
2022/10/21 06:19:07;;;;;;;18.70;10.60;;;;;;;11.82;100.00;100473.19;5030731;28;20044;-93
2022/10/21 06:21:32;;;;;;;15.73;10.23;;;;;;;11.79;100.00;100461.94;5012578;28;20647;-93
2022/10/21 06:23:57;;;;;;;16.63;10.17;;;;;;;11.79;100.00;100461.94;5022946;28;20055;-94
2022/10/21 06:26:23;;;;;;;14.77;9.90;;;;;;;11.72;100.00;100444.94;5032089;28;20390;-94
2022/10/21 06:28:48;;;;;;;15.23;9.87;;;;;;;11.85;100.00;100471.91;5034836;28;20508;-92
2022/10/21 06:31:16;;;;;;;14.73;10.13;;;;;;;11.70;100.00;100461.44;5049877;28;20029;-91
2022/10/21 06:33:42;;;;;;;22.00;11.50;;;;;;;11.74;100.00;100459.09;5032156;28;20077;-92
2022/10/21 06:36:07;;;;;;;15.60;10.00;;;;;;;11.71;100.00;100459.53;5027122;28;20056;-92
2022/10/21 06:38:33;;;;;;;15.57;10.10;;;;;;;11.82;100.00;100483.22;5027993;28;20043;-93
2022/10/21 06:41:04;;;;;;;14.17;9.90;;;;;;;11.74;100.00;100464.53;5025741;28;20544;-93
2022/10/21 06:43:30;;;;;;;13.83;10.37;;;;;;;11.69;100.00;100456.25;5015995;28;20637;-93
2022/10/21 06:46:03;;;;;;;15.80;10.40;;;;;;;11.71;100.00;100459.53;5027955;28;20486;-93
2022/10/21 06:48:29;;;;;;;16.73;10.67;;;;;;;11.68;100.00;100455.41;5027677;28;20473;-94
2022/10/21 06:51:02;;;;;;;16.33;10.50;;;;;;;11.75;100.00;100483.31;5027781;28;20588;-93
2022/10/21 06:53:28;;;;;;;17.93;11.03;;;;;;;11.76;100.00;100486.84;5000320;28;20037;-93
2022/10/21 06:56:09;;;;;;;15.40;9.83;;;;;;;11.72;100.00;100491.06;5027032;28;20079;-93
2022/10/21 06:58:36;;;;;;;15.60;9.97;;;;;;;11.79;100.00;100499.94;5027382;28;20036;-92
2022/10/21 07:01:23;;;;;;;15.53;10.30;;;;;;;11.92;100.00;100512.53;5027866;28;20037;-93
2022/10/21 07:03:49;;;;;;;14.40;9.63;;;;;;;11.88;100.00;100503.19;5016120;28;20037;-93
2022/10/21 07:06:15;;;;;;;16.90;9.80;;;;;;;11.85;100.00;100504.47;5027663;28;20068;-93
2022/10/21 07:08:42;;;;;;;15.27;9.53;;;;;;;11.88;100.00;100504.00;5020474;28;20033;-94
2022/10/21 07:11:09;;;;;;;17.00;10.27;;;;;;;11.88;100.00;100504.00;5043388;28;20104;-94
2022/10/21 07:13:34;;;;;;;15.53;10.27;;;;;;;12.03;100.00;100533.50;5051257;28;20021;-95
2022/10/21 07:16:02;;;;;;;15.90;10.27;;;;;;;11.97;100.00;100529.81;5051166;28;20074;-96
2022/10/21 07:18:28;;;;;;;14.57;10.27;;;;;;;12.09;100.00;100548.03;5021812;28;20037;-93
2022/10/21 07:20:53;;;;;;;16.13;10.17;;;;;;;12.05;100.00;100541.41;5029561;28;20041;-94
2022/10/21 07:23:19;;;;;;;14.73;10.50;;;;;;;12.01;100.00;100529.34;5030530;28;20040;-93
2022/10/21 07:25:45;;;;;;;17.70;11.20;;;;;;;12.09;100.00;100548.88;5020702;28;20660;-92
2022/10/21 07:28:10;;;;;;;15.97;10.33;;;;;;;12.14;100.00;100545.47;5029829;28;20112;-95
2022/10/21 07:30:41;;;;;;;17.73;10.53;;;;;;;12.08;100.00;100525.50;5029395;28;20040;-93
2022/10/21 07:33:06;;;;;;;18.87;10.90;;;;;;;12.21;100.00;100546.22;5029509;28;20126;-93
2022/10/21 07:35:32;;;;;;;16.07;10.27;;;;;;;12.24;100.00;100544.91;5028425;28;20043;-94
2022/10/21 07:37:57;;;;;;;17.10;10.37;;;;;;;12.35;100.00;100556.88;5029646;28;20484;-93
2022/10/21 07:40:23;;;;;;;14.47;10.60;;;;;;;12.26;100.00;100542.81;5011355;28;20164;-93
2022/10/21 07:42:48;;;;;;;15.13;9.93;;;;;;;12.32;100.00;100544.59;5029332;28;20064;-91
2022/10/21 07:45:13;;;;;;;16.20;10.00;;;;;;;12.32;100.00;100540.00;5011823;28;20609;-94
2022/10/21 07:47:39;;;;;;;16.70;9.53;;;;;;;12.46;100.00;100559.66;5029456;28;20061;-95
2022/10/21 07:50:05;;;;;;;16.60;10.90;;;;;;;12.47;100.00;100557.75;5028968;28;20042;-93
2022/10/21 07:52:30;;;;;;;14.67;9.73;;;;;;;12.46;100.00;100545.25;5031238;28;20072;-94
2022/10/21 07:54:55;;;;;;;17.33;10.73;;;;;;;12.62;100.00;100560.88;5014896;28;20455;-93
2022/10/21 07:57:21;;;;;;;16.13;10.30;;;;;;;12.54;100.00;100549.50;5034846;28;20048;-94
2022/10/21 07:59:46;;;;;;;20.10;11.07;;;;;;;12.54;100.00;100550.34;5034062;28;20060;-94
2022/10/21 08:02:13;;;;;;;17.93;11.03;;;;;;;12.57;100.00;100544.44;5033574;28;20479;-94
2022/10/21 08:04:39;;;;;;;14.13;9.97;;;;;;;12.74;100.00;100562.78;5033916;28;20057;-93
2022/10/21 08:07:04;;;;;;;14.53;10.53;;;;;;;12.71;100.00;100538.81;5032966;28;20579;-93
2022/10/21 08:09:30;;;;;;;16.47;10.60;;;;;;;12.80;100.00;100561.88;5033932;28;20043;-93
2022/10/21 08:11:56;;;;;;;16.33;10.20;;;;;;;12.83;100.00;100548.63;5033247;28;20029;-92
2022/10/21 08:14:21;;;;;;;18.23;10.47;;;;;;;12.89;100.00;100557.75;5032945;28;20043;-94
2022/10/21 08:16:51;;;;;;;14.47;10.07;;;;;;;12.93;100.00;100556.22;5023691;28;20619;-94
2022/10/21 08:19:18;;;;;;;16.63;10.30;;;;;;;13.03;100.00;100552.06;5033094;28;20556;-93
2022/10/21 08:21:44;;;;;;;16.23;10.20;;;;;;;13.06;100.00;100543.47;5023818;28;20216;-95
2022/10/21 08:24:09;;;;;;;15.37;9.93;;;;;;;13.02;100.00;100539.56;5031087;28;20041;-94
2022/10/21 08:26:35;;;;;;;18.93;10.60;;;;;;;13.03;100.00;100530.31;5032897;28;20650;-94
2022/10/21 08:29:04;;;;;;;16.23;9.77;;;;;;;13.08;100.00;100539.44;5032985;28;21669;-94
2022/10/21 08:31:29;;;;;;;12.70;10.03;;;;;;;13.09;100.00;100534.81;5033240;28;20046;-94
2022/10/21 08:33:55;;;;;;;16.23;9.90;;;;;;;13.07;100.00;100536.94;5033402;28;20044;-94
2022/10/21 08:36:23;;;;;;;15.93;10.57;;;;;;;13.10;100.00;100547.38;5015158;28;20036;-93
2022/10/21 08:38:49;;;;;;;16.90;10.70;;;;;;;13.23;100.00;100568.91;5032772;28;20694;-94
2022/10/21 08:41:29;;;;;;;17.30;10.47;;;;;;;13.21;100.00;100570.19;5033278;28;20077;-95
2022/10/21 08:44:21;;;;;;;17.33;11.10;;;;;;;13.17;100.00;100561.66;5032799;28;20033;-94
2022/10/21 08:46:54;;;;;;;18.27;10.63;;;;;;;13.07;100.00;100547.81;5002840;28;20057;-93
2022/10/21 08:49:33;;;;;;;16.40;10.70;;;;;;;13.09;100.00;100553.88;5024149;28;20071;-92
2022/10/21 08:52:10;;;;;;;20.07;11.33;;;;;;;13.09;100.00;100560.13;5032886;28;20311;-93
2022/10/21 08:54:41;;;;;;;18.57;10.93;;;;;;;13.15;100.00;100566.50;5033852;28;20069;-94
2022/10/21 08:57:10;;;;;;;18.20;11.07;;;;;;;13.06;100.00;100570.66;5014622;28;20032;-91
2022/10/21 08:59:36;;;;;;;18.40;11.10;;;;;;;13.06;100.00;100568.75;5023902;28;20381;-92
2022/10/21 09:02:13;;;;;;;19.60;11.57;;;;;;;13.27;100.00;100589.13;5031538;28;20043;-93
2022/10/21 09:04:54;;;;;;;16.30;10.97;;;;;;;13.32;100.00;100597.38;5031156;28;20037;-93
2022/10/21 09:07:24;;;;;;;15.83;10.27;;;;;;;13.33;100.00;100579.19;5013330;28;20170;-92
2022/10/21 09:10:28;;;;;;;17.47;11.00;;;;;;;13.31;100.00;100568.53;5032321;28;20033;-92
2022/10/21 09:13:00;;;;;;;16.50;10.80;;;;;;;13.37;100.00;100579.56;5010839;28;20110;-94
2022/10/21 09:15:46;;;;;;;19.07;11.33;;;;;;;13.38;100.00;100568.47;5032993;28;20669;-91
2022/10/21 09:18:33;;;;;;;24.33;10.57;;;;;;;13.53;100.00;100584.31;5031712;28;20124;-92
2022/10/21 09:21:20;;;;;;;19.17;10.70;;;;;;;13.67;100.00;100595.78;5022944;28;20036;-93
2022/10/21 09:24:01;;;;;;;17.03;9.13;;;;;;;13.57;100.00;100569.16;5031961;28;20039;-90
2022/10/21 09:26:46;;;;;;;18.43;10.30;;;;;;;13.70;100.00;100583.56;5031970;28;20589;-91
2022/10/21 09:29:19;;;;;;;14.82;8.30;;;;;;;13.83;100.00;100584.13;5032211;28;20045;-91
2022/10/21 09:31:45;;;;;;;17.27;10.43;;;;;;;13.77;100.00;100573.38;5032620;28;20037;-91
2022/10/21 09:34:28;;;;;;;14.63;8.63;;;;;;;13.86;100.00;100582.84;5007351;28;20500;-94
2022/10/21 09:36:55;;;;;;;15.00;9.00;;;;;;;13.81;100.00;100569.09;5031008;28;20523;-92
2022/10/21 09:39:37;;;;;;;11.90;7.80;;;;;;;13.76;100.00;100566.25;5030722;28;20041;-90
2022/10/21 09:42:05;;;;;;;13.23;7.77;;;;;;;13.83;100.00;100575.97;5030951;28;20163;-90
2022/10/21 09:44:30;;;;;;;13.20;6.87;;;;;;;13.84;100.00;100571.34;5032122;28;20146;-90
2022/10/21 09:46:56;;;;;;;12.47;6.83;;;;;;;13.87;100.00;100567.31;5031500;28;20439;-92
2022/10/21 09:49:30;;;;;;;11.33;6.00;;;;;;;13.97;100.00;100571.06;5030958;28;20048;-91
2022/10/21 09:52:00;;;;;;;13.52;6.85;;;;;;;14.11;100.00;100568.88;5020689;28;20088;-91
2022/10/21 09:54:30;;;;;;;9.33;5.53;;;;;;;14.10;100.00;100550.06;5030942;28;20044;-92
2022/10/21 09:57:34;;;;;;;11.87;4.87;;;;;;;14.28;100.00;100570.84;5030982;28;20057;-92
2022/10/21 10:00:01;;;;;;;9.60;5.40;;;;;;;14.29;100.00;100551.53;4960730;28;20050;-92
2022/10/21 10:02:34;;;;;;;11.57;6.40;;;;;;;14.36;100.00;100551.41;5016909;28;20041;-91
2022/10/21 10:05:00;;;;;;;12.63;6.67;;;;;;;14.49;100.00;100570.16;5012936;28;20064;-93
2022/10/21 10:07:27;;;;;;;12.97;7.47;;;;;;;14.51;100.00;100578.94;5031195;28;20115;-92
2022/10/21 10:09:55;;;;;;;14.87;7.50;;;;;;;14.41;100.00;100554.19;5029219;28;20045;-92
2022/10/21 10:12:25;;;;;;;14.83;8.67;;;;;;;14.48;100.00;100582.16;5022080;28;20041;-93
2022/10/21 10:14:50;;;;;;;14.63;7.97;;;;;;;14.60;100.00;100587.53;5020767;28;20975;-93
2022/10/21 10:17:35;;;;;;;16.10;9.10;;;;;;;14.58;100.00;100581.50;5000668;28;20094;-93
2022/10/21 10:20:04;;;;;;;13.17;8.40;;;;;;;14.69;100.00;100596.19;5024252;28;20037;-94
2022/10/21 10:22:37;;;;;;;15.30;8.67;;;;;;;14.75;100.00;100594.38;5024204;28;20042;-91
2022/10/21 10:25:22;;;;;;;13.17;7.80;;;;;;;14.71;100.00;100576.84;4999225;28;20060;-93
2022/10/21 10:27:52;;;;;;;11.97;7.20;;;;;;;14.79;100.00;100592.78;5026242;28;20040;-94
2022/10/21 10:30:18;;;;;;;13.50;7.90;;;;;;;14.96;100.00;100598.25;5018412;28;20032;-93
2022/10/21 10:32:45;;;;;;;13.90;7.63;;;;;;;15.01;100.00;100596.47;5017004;28;20504;-93
2022/10/21 10:35:21;;;;;;;11.80;7.10;;;;;;;15.07;100.00;100588.34;5023812;28;20049;-95
2022/10/21 10:37:48;;;;;;;14.73;7.40;;;;;;;15.23;100.00;100595.72;5020236;28;20039;-92
2022/10/21 10:40:24;;;;;;;11.37;7.03;;;;;;;15.31;100.00;100595.28;5018129;28;20049;-94
2022/10/21 10:42:59;;;;;;;11.97;6.60;;;;;;;15.46;100.00;100605.63;5020448;28;20048;-93
2022/10/21 10:45:25;;;;;;;14.63;7.50;;;;;;;15.57;100.00;100598.41;5013144;28;20036;-93
2022/10/21 10:47:59;;;;;;;12.73;7.30;;;;;;;15.67;100.00;100595.81;5023608;28;20163;-93
2022/10/21 10:50:36;;;;;;;15.30;8.38;;;;;;;15.89;100.00;100614.16;4999244;28;20029;-91
2022/10/21 10:53:29;;;;;;;11.50;6.53;;;;;;;15.94;100.00;100621.56;5029621;28;20040;-93
2022/10/21 10:56:13;;;;;;;13.37;6.63;;;;;;;15.97;100.00;100619.19;5029132;28;20112;-92
2022/10/21 10:58:47;;;;;;;11.65;7.15;;;;;;;15.90;100.00;100595.84;5030269;28;20128;-92
2022/10/21 11:01:26;;;;;;;11.02;6.55;;;;;;;15.95;100.00;100594.03;5029382;28;20701;-91
2022/10/21 11:04:01;;;;;;;11.20;6.50;;;;;;;16.04;100.00;100592.47;5029650;28;20036;-92
2022/10/21 11:06:35;;;;;;;10.30;6.50;;;;;;;16.23;100.00;100603.09;5030024;28;20056;-92
2022/10/21 11:09:04;;;;;;;12.77;7.15;;;;;;;16.49;100.00;100589.72;5020765;28;20052;-92
2022/10/21 11:11:39;;;;;;;8.57;5.80;;;;;;;16.70;100.00;100583.34;5011061;28;20033;-92
2022/10/21 11:14:12;;;;;;;12.90;6.17;;;;;;;16.89;100.00;100580.28;5019993;28;20033;-92
2022/10/21 11:16:56;;;;;;;11.53;6.10;;;;;;;17.27;100.00;100600.28;5029979;28;20859;-92